San Juan Enterprise — WDD9563 — position and weather

sailwx.info

Track history (hours):
 
Tides and Currents Weather Stations Pressure Air Temp Water Temp Dewpoint Dewpoint Depression Visibility Wind Speed Wind Dir Waves Ship Positions

San Juan Enterprise

Owner: SAN JUAN MARINE FREIGHT CO LLC, ANACORTES, WA. More information available from US FCC via Universal Licensing System and Coast Guard Vessel Documentation Center.

Last reported at 2017-Jan-23 18:33 UTC. Time now 2017-Jan-23 18:48 UTC.
Position N 48°31' W 122°37'.

Length 30 m.

MMSI: 367313160.

Date/timePositionNaut miles runAvg speedWind from/ knotsBaromVisibWave heightAir tempDewpointWater temp
2017-Jan-23 18:33N 48°31' W 122°37'0 0.3
2017-Jan-23 17:28N 48°31' W 122°36'0 0.0
2017-Jan-23 16:28N 48°31' W 122°36'0 0.0
2017-Jan-23 15:28N 48°31' W 122°36'0 0.0
2017-Jan-23 14:28N 48°31' W 122°36'0 0.0
2017-Jan-23 13:28N 48°31' W 122°36'0 0.0
2017-Jan-23 12:28N 48°31' W 122°36'0 0.0
2017-Jan-23 06:16N 48°31' W 122°36'0 0.0
2017-Jan-23 05:28N 48°31' W 122°36'0 0.0
2017-Jan-23 04:22N 48°31' W 122°36'0 0.0
2017-Jan-23 03:28N 48°31' W 122°36'0 0.0
2017-Jan-23 02:28N 48°31' W 122°36'0 0.0
2017-Jan-23 01:28N 48°31' W 122°36'0 0.0
2017-Jan-23 00:28N 48°31' W 122°36'0 0.0
2017-Jan-22 23:28N 48°31' W 122°36'0 0.0
2017-Jan-22 22:28N 48°31' W 122°36'0 0.0
2017-Jan-22 21:28N 48°31' W 122°36'0 0.0
2017-Jan-22 20:28N 48°31' W 122°36'0 0.0
2017-Jan-22 19:28N 48°31' W 122°36'0 0.0
2017-Jan-22 18:22N 48°31' W 122°36'0 0.0
2017-Jan-22 17:22N 48°31' W 122°36'0 0.0
2017-Jan-22 12:22N 48°31' W 122°36'0 0.0
2017-Jan-22 11:10N 48°31' W 122°36'0 0.0
2017-Jan-22 09:28N 48°31' W 122°36'0 0.0
2017-Jan-22 08:22N 48°31' W 122°36'0 0.0
2017-Jan-22 07:28N 48°31' W 122°36'0 0.0
2017-Jan-22 06:16N 48°31' W 122°36'0 0.0
2017-Jan-22 05:28N 48°31' W 122°36'0 0.0
2017-Jan-22 04:28N 48°31' W 122°36'0 0.0
2017-Jan-22 03:28N 48°31' W 122°36'0 0.0
2017-Jan-22 02:28N 48°31' W 122°36'0 0.0
2017-Jan-22 01:28N 48°31' W 122°36'0 0.0
2017-Jan-22 00:16N 48°31' W 122°36'0 0.0
2017-Jan-21 23:28N 48°31' W 122°36'0 0.0
2017-Jan-21 22:28N 48°31' W 122°36'0 0.0
2017-Jan-21 21:28N 48°31' W 122°36'0 0.0
2017-Jan-21 20:28N 48°31' W 122°36'0 0.0
2017-Jan-21 19:28N 48°31' W 122°36'0 0.0
2017-Jan-21 18:28N 48°31' W 122°36'0 0.0
2017-Jan-21 17:28N 48°31' W 122°36'0 0.0
2017-Jan-21 16:28N 48°31' W 122°36'0 0.0
2017-Jan-21 15:28N 48°31' W 122°36'0 0.0
2017-Jan-21 14:22N 48°31' W 122°36'0 0.0
2017-Jan-21 13:28N 48°31' W 122°36'0 0.0
2017-Jan-21 12:28N 48°31' W 122°36'0 0.0
2017-Jan-21 11:28N 48°31' W 122°36'0 0.0
2017-Jan-21 10:22N 48°31' W 122°36'0 0.0
2017-Jan-21 09:28N 48°31' W 122°36'0 0.0
2017-Jan-21 08:28N 48°31' W 122°36'0 0.0
2017-Jan-21 07:16N 48°31' W 122°36'0 0.0
2017-Jan-21 06:28N 48°31' W 122°36'0 0.0
2017-Jan-21 05:28N 48°31' W 122°36'0 0.0
2017-Jan-21 04:28N 48°31' W 122°36'0 0.0
2017-Jan-21 03:28N 48°31' W 122°36'0 0.0
2017-Jan-21 02:28N 48°31' W 122°36'0 0.0
2017-Jan-21 01:28N 48°31' W 122°36'0 0.0
2017-Jan-21 00:28N 48°31' W 122°36'0 0.0
2017-Jan-20 23:28N 48°31' W 122°36'0 0.0
2017-Jan-20 22:28N 48°31' W 122°36'0 0.0
2017-Jan-20 21:34N 48°31' W 122°36'1 1.1
2017-Jan-20 20:34N 48°31' W 122°38'8 7.8
2017-Jan-20 19:33N 48°29' W 122°50'0 0.2
2017-Jan-20 18:34N 48°29' W 122°50'9 8.8
2017-Jan-20 17:34N 48°31' W 122°37'0 0.3
2017-Jan-20 16:29N 48°31' W 122°36'0 0.0
2017-Jan-20 15:17N 48°31' W 122°36'0 0.0
2017-Jan-20 14:29N 48°31' W 122°36'0 0.0
2017-Jan-20 13:29N 48°31' W 122°36'0 0.0
2017-Jan-20 12:29N 48°31' W 122°36'0 0.0
2017-Jan-20 11:29N 48°31' W 122°36'0 0.0
2017-Jan-20 10:29N 48°31' W 122°36'0 0.0
2017-Jan-20 09:29N 48°31' W 122°36'0 0.0
2017-Jan-20 08:29N 48°31' W 122°36'0 0.0
2017-Jan-20 07:29N 48°31' W 122°36'0 0.0
2017-Jan-20 06:29N 48°31' W 122°36'0 0.0
2017-Jan-20 05:29N 48°31' W 122°36'0 0.0
2017-Jan-20 04:29N 48°31' W 122°36'0 0.0
2017-Jan-20 03:29N 48°31' W 122°36'0 0.0
2017-Jan-20 02:29N 48°31' W 122°36'0 0.0
2017-Jan-20 01:29N 48°31' W 122°36'0 0.0
2017-Jan-20 00:29N 48°31' W 122°36'1 0.7
2017-Jan-19 23:33N 48°31' W 122°36'1 0.6
2017-Jan-19 22:33N 48°31' W 122°36'3 3.0
2017-Jan-19 21:33N 48°32' W 122°41'7 7.3
2017-Jan-19 20:33N 48°34' W 122°51'6 6.1
2017-Jan-19 19:33N 48°32' W 123°00'0 0.0
2017-Jan-19 18:33N 48°32' W 123°00'6 5.9
2017-Jan-19 17:33N 48°34' W 122°52'8 8.1
2017-Jan-19 16:33N 48°31' W 122°41'3 2.3
2017-Jan-19 15:19N 48°31' W 122°36'0 0.0
2017-Jan-19 14:31N 48°31' W 122°36'0 0.0
2017-Jan-19 13:31N 48°31' W 122°36'0 0.0
2017-Jan-19 12:31N 48°31' W 122°36'0 0.0
2017-Jan-19 11:31N 48°31' W 122°36'0 0.0
2017-Jan-19 10:31N 48°31' W 122°36'0 0.0
2017-Jan-19 09:31N 48°31' W 122°36'0 0.0
2017-Jan-19 08:31N 48°31' W 122°36'0 0.0
2017-Jan-19 07:31N 48°31' W 122°36'0 0.0
2017-Jan-19 06:31N 48°31' W 122°36'0 0.0
2017-Jan-19 05:31N 48°31' W 122°36'0 0.0
2017-Jan-19 04:31N 48°31' W 122°36'0 0.0
2017-Jan-19 03:31N 48°31' W 122°36'0 0.0
2017-Jan-19 02:31N 48°31' W 122°36'0 0.0
2017-Jan-19 01:31N 48°31' W 122°36'0 0.0
2017-Jan-19 00:31N 48°31' W 122°36'0 0.0
2017-Jan-18 23:31N 48°31' W 122°36'0 0.0
2017-Jan-18 22:31N 48°31' W 122°36'0 0.0
2017-Jan-18 21:31N 48°31' W 122°36'5 5.0
2017-Jan-18 20:32N 48°35' W 122°41'6 6.6
2017-Jan-18 19:34N 48°35' W 122°51'2 2.3
2017-Jan-18 18:33N 48°33' W 122°53'1 0.9
2017-Jan-18 17:33N 48°34' W 122°52'9 8.7
2017-Jan-18 16:34N 48°31' W 122°40'3 2.6
2017-Jan-18 15:33N 48°31' W 122°36'0 0.0
2017-Jan-18 14:33N 48°31' W 122°36'0 0.0
2017-Jan-18 13:33N 48°31' W 122°36'0 0.0
2017-Jan-18 12:33N 48°31' W 122°36'0 0.0
2017-Jan-18 11:33N 48°31' W 122°36'0 0.0
2017-Jan-18 10:33N 48°31' W 122°36'0 0.0
2017-Jan-18 09:33N 48°31' W 122°36'0 0.0
2017-Jan-18 08:33N 48°31' W 122°36'0 0.0
2017-Jan-18 07:33N 48°31' W 122°36'0 0.0
2017-Jan-18 06:33N 48°31' W 122°36'0 0.0
2017-Jan-18 05:33N 48°31' W 122°36'0 0.0
2017-Jan-18 04:33N 48°31' W 122°36'0 0.0
2017-Jan-18 03:33N 48°31' W 122°36'0 0.0
2017-Jan-18 02:33N 48°31' W 122°36'0 0.0
2017-Jan-18 01:33N 48°31' W 122°36'4 4.0
2017-Jan-18 00:33N 48°34' W 122°40'6 5.6
2017-Jan-17 23:34N 48°36' W 122°48'1 1.0
2017-Jan-17 22:34N 48°35' W 122°49'0 0.0
2017-Jan-17 21:34N 48°35' W 122°49'0 0.0
2017-Jan-17 20:33N 48°35' W 122°49'0 0.0
2017-Jan-17 19:33N 48°35' W 122°49'0 0.0
2017-Jan-17 18:34N 48°35' W 122°49'0 0.0
2017-Jan-17 17:33N 48°35' W 122°49'5 4.9
2017-Jan-17 16:34N 48°32' W 122°43'5 4.4
2017-Jan-17 15:31N 48°31' W 122°36'0 0.0
2017-Jan-17 14:31N 48°31' W 122°36'0 0.0
2017-Jan-17 13:31N 48°31' W 122°36'0 0.0
2017-Jan-17 12:25N 48°31' W 122°36'0 0.0
2017-Jan-17 11:31N 48°31' W 122°36'0 0.0
2017-Jan-17 10:31N 48°31' W 122°36'0 0.0
2017-Jan-17 09:31N 48°31' W 122°36'0 0.0
2017-Jan-17 08:31N 48°31' W 122°36'0 0.0
2017-Jan-17 07:31N 48°31' W 122°36'0 0.0
2017-Jan-17 06:31N 48°31' W 122°36'0 0.0
2017-Jan-17 05:31N 48°31' W 122°36'0 0.0
2017-Jan-17 04:31N 48°31' W 122°36'0 0.0
2017-Jan-17 03:31N 48°31' W 122°36'0 0.0
2017-Jan-17 02:31N 48°31' W 122°36'0 0.0
2017-Jan-17 01:31N 48°31' W 122°36'0 0.0
2017-Jan-17 00:31N 48°31' W 122°36'0 0.0
2017-Jan-16 23:31N 48°31' W 122°36'0 0.0
2017-Jan-16 22:31N 48°31' W 122°36'0 0.0
2017-Jan-16 21:31N 48°31' W 122°36'0 0.0
2017-Jan-16 20:31N 48°31' W 122°36'0 0.0
2017-Jan-16 19:31N 48°31' W 122°36'0 0.0
2017-Jan-16 18:31N 48°31' W 122°36'0 0.0
2017-Jan-16 17:31N 48°31' W 122°36'0 0.0
2017-Jan-16 16:31N 48°31' W 122°36'0 0.0
2017-Jan-16 15:31N 48°31' W 122°36'0 0.0
2017-Jan-16 14:31N 48°31' W 122°36'0 0.0
2017-Jan-16 13:31N 48°31' W 122°36'0 0.0
2017-Jan-16 12:31N 48°31' W 122°36'0 0.0
2017-Jan-16 08:13N 48°31' W 122°36'0 0.0
2017-Jan-16 03:19N 48°31' W 122°36'0 0.0
2017-Jan-16 02:19N 48°31' W 122°36'0 0.0
2017-Jan-16 01:31N 48°31' W 122°36'0 0.0
2017-Jan-16 00:31N 48°31' W 122°36'0 0.0
2017-Jan-15 23:31N 48°31' W 122°36'0 0.0
2017-Jan-15 22:25N 48°31' W 122°36'0 0.0
2017-Jan-15 21:31N 48°31' W 122°36'0 0.0
2017-Jan-15 20:31N 48°31' W 122°36'0 0.0
2017-Jan-15 19:31N 48°31' W 122°36'0 0.0
2017-Jan-15 18:31N 48°31' W 122°36'0 0.0
2017-Jan-15 17:31N 48°31' W 122°36'0 0.0
2017-Jan-15 09:07N 48°31' W 122°36'0 0.0
2017-Jan-15 07:31N 48°31' W 122°36'0 0.0
2017-Jan-15 03:31N 48°31' W 122°36'0 0.0
2017-Jan-15 02:31N 48°31' W 122°36'0 0.0
2017-Jan-15 01:31N 48°31' W 122°36'0 0.0
2017-Jan-15 00:31N 48°31' W 122°36'0 0.0
2017-Jan-14 23:25N 48°31' W 122°36'0 0.0
2017-Jan-14 22:33N 48°31' W 122°36'7 7.3
2017-Jan-14 21:33N 48°32' W 122°47'8 7.7
2017-Jan-14 20:33N 48°32' W 122°59'1 1.0
2017-Jan-14 19:33N 48°32' W 123°00'1 0.5
2017-Jan-14 18:33N 48°32' W 122°60'7 7.0
2017-Jan-14 17:33N 48°32' W 122°49'8 8.5
2017-Jan-14 16:33N 48°31' W 122°36'0 0.1
2017-Jan-14 15:25N 48°31' W 122°36'0 0.0
2017-Jan-14 14:28N 48°31' W 122°36'0 0.0
2017-Jan-14 13:22N 48°31' W 122°36'0 0.0
2017-Jan-14 12:28N 48°31' W 122°36'0 0.0
2017-Jan-14 11:28N 48°31' W 122°36'0 0.0
2017-Jan-14 10:28N 48°31' W 122°36'0 0.0
2017-Jan-14 09:22N 48°31' W 122°36'0 0.0
2017-Jan-14 08:22N 48°31' W 122°36'0 0.0
2017-Jan-14 07:28N 48°31' W 122°36'0 0.0
2017-Jan-14 06:28N 48°31' W 122°36'0 0.0
2017-Jan-14 05:28N 48°31' W 122°36'0 0.0
2017-Jan-14 04:28N 48°31' W 122°36'0 0.0
2017-Jan-14 03:28N 48°31' W 122°36'0 0.0
2017-Jan-13 23:28N 48°31' W 122°36'1 1.6
2017-Jan-13 22:33N 48°31' W 122°39'8 8.5
2017-Jan-13 21:33N 48°33' W 122°51'6 6.2
2017-Jan-13 20:33N 48°32' W 123°00'0 0.0
2017-Jan-13 19:33N 48°32' W 123°00'6 5.9
2017-Jan-13 18:33N 48°34' W 122°52'  
Track history (hours):
 
Tides and Currents Weather Stations Pressure Air Temp Water Temp Dewpoint Dewpoint Depression Visibility Wind Speed Wind Dir Waves Ship Positions

San Juan Enterprise

Owner: SAN JUAN MARINE FREIGHT CO LLC, ANACORTES, WA. More information available from US FCC via Universal Licensing System and Coast Guard Vessel Documentation Center.

Last reported at 2017-Jan-23 18:33 UTC. Time now 2017-Jan-23 18:48 UTC.
Position N 48°31' W 122°37'.

Length 30 m.

MMSI: 367313160.

Date/timePositionNaut miles runAvg speedWind from/ knotsBaromVisibWave heightAir tempDewpointWater temp
2017-Jan-23 18:33N 48°31' W 122°37'0 0.3
2017-Jan-23 17:28N 48°31' W 122°36'0 0.0
2017-Jan-23 16:28N 48°31' W 122°36'0 0.0
2017-Jan-23 15:28N 48°31' W 122°36'0 0.0
2017-Jan-23 14:28N 48°31' W 122°36'0 0.0
2017-Jan-23 13:28N 48°31' W 122°36'0 0.0
2017-Jan-23 12:28N 48°31' W 122°36'0 0.0
2017-Jan-23 06:16N 48°31' W 122°36'0 0.0
2017-Jan-23 05:28N 48°31' W 122°36'0 0.0
2017-Jan-23 04:22N 48°31' W 122°36'0 0.0
2017-Jan-23 03:28N 48°31' W 122°36'0 0.0
2017-Jan-23 02:28N 48°31' W 122°36'0 0.0
2017-Jan-23 01:28N 48°31' W 122°36'0 0.0
2017-Jan-23 00:28N 48°31' W 122°36'0 0.0
2017-Jan-22 23:28N 48°31' W 122°36'0 0.0
2017-Jan-22 22:28N 48°31' W 122°36'0 0.0
2017-Jan-22 21:28N 48°31' W 122°36'0 0.0
2017-Jan-22 20:28N 48°31' W 122°36'0 0.0
2017-Jan-22 19:28N 48°31' W 122°36'0 0.0
2017-Jan-22 18:22N 48°31' W 122°36'0 0.0
2017-Jan-22 17:22N 48°31' W 122°36'0 0.0
2017-Jan-22 12:22N 48°31' W 122°36'0 0.0
2017-Jan-22 11:10N 48°31' W 122°36'0 0.0
2017-Jan-22 09:28N 48°31' W 122°36'0 0.0
2017-Jan-22 08:22N 48°31' W 122°36'0 0.0
2017-Jan-22 07:28N 48°31' W 122°36'0 0.0
2017-Jan-22 06:16N 48°31' W 122°36'0 0.0
2017-Jan-22 05:28N 48°31' W 122°36'0 0.0
2017-Jan-22 04:28N 48°31' W 122°36'0 0.0
2017-Jan-22 03:28N 48°31' W 122°36'0 0.0
2017-Jan-22 02:28N 48°31' W 122°36'0 0.0
2017-Jan-22 01:28N 48°31' W 122°36'0 0.0
2017-Jan-22 00:16N 48°31' W 122°36'0 0.0
2017-Jan-21 23:28N 48°31' W 122°36'0 0.0
2017-Jan-21 22:28N 48°31' W 122°36'0 0.0
2017-Jan-21 21:28N 48°31' W 122°36'0 0.0
2017-Jan-21 20:28N 48°31' W 122°36'0 0.0
2017-Jan-21 19:28N 48°31' W 122°36'0 0.0
2017-Jan-21 18:28N 48°31' W 122°36'0 0.0
2017-Jan-21 17:28N 48°31' W 122°36'0 0.0
2017-Jan-21 16:28N 48°31' W 122°36'0 0.0
2017-Jan-21 15:28N 48°31' W 122°36'0 0.0
2017-Jan-21 14:22N 48°31' W 122°36'0 0.0
2017-Jan-21 13:28N 48°31' W 122°36'0 0.0
2017-Jan-21 12:28N 48°31' W 122°36'0 0.0
2017-Jan-21 11:28N 48°31' W 122°36'0 0.0
2017-Jan-21 10:22N 48°31' W 122°36'0 0.0
2017-Jan-21 09:28N 48°31' W 122°36'0 0.0
2017-Jan-21 08:28N 48°31' W 122°36'0 0.0
2017-Jan-21 07:16N 48°31' W 122°36'0 0.0
2017-Jan-21 06:28N 48°31' W 122°36'0 0.0
2017-Jan-21 05:28N 48°31' W 122°36'0 0.0
2017-Jan-21 04:28N 48°31' W 122°36'0 0.0
2017-Jan-21 03:28N 48°31' W 122°36'0 0.0
2017-Jan-21 02:28N 48°31' W 122°36'0 0.0
2017-Jan-21 01:28N 48°31' W 122°36'0 0.0
2017-Jan-21 00:28N 48°31' W 122°36'0 0.0
2017-Jan-20 23:28N 48°31' W 122°36'0 0.0
2017-Jan-20 22:28N 48°31' W 122°36'0 0.0
2017-Jan-20 21:34N 48°31' W 122°36'1 1.1
2017-Jan-20 20:34N 48°31' W 122°38'8 7.8
2017-Jan-20 19:33N 48°29' W 122°50'0 0.2
2017-Jan-20 18:34N 48°29' W 122°50'9 8.8
2017-Jan-20 17:34N 48°31' W 122°37'0 0.3
2017-Jan-20 16:29N 48°31' W 122°36'0 0.0
2017-Jan-20 15:17N 48°31' W 122°36'0 0.0
2017-Jan-20 14:29N 48°31' W 122°36'0 0.0
2017-Jan-20 13:29N 48°31' W 122°36'0 0.0
2017-Jan-20 12:29N 48°31' W 122°36'0 0.0
2017-Jan-20 11:29N 48°31' W 122°36'0 0.0
2017-Jan-20 10:29N 48°31' W 122°36'0 0.0
2017-Jan-20 09:29N 48°31' W 122°36'0 0.0
2017-Jan-20 08:29N 48°31' W 122°36'0 0.0
2017-Jan-20 07:29N 48°31' W 122°36'0 0.0
2017-Jan-20 06:29N 48°31' W 122°36'0 0.0
2017-Jan-20 05:29N 48°31' W 122°36'0 0.0
2017-Jan-20 04:29N 48°31' W 122°36'0 0.0
2017-Jan-20 03:29N 48°31' W 122°36'0 0.0
2017-Jan-20 02:29N 48°31' W 122°36'0 0.0
2017-Jan-20 01:29N 48°31' W 122°36'0 0.0
2017-Jan-20 00:29N 48°31' W 122°36'1 0.7
2017-Jan-19 23:33N 48°31' W 122°36'1 0.6
2017-Jan-19 22:33N 48°31' W 122°36'3 3.0
2017-Jan-19 21:33N 48°32' W 122°41'7 7.3
2017-Jan-19 20:33N 48°34' W 122°51'6 6.1
2017-Jan-19 19:33N 48°32' W 123°00'0 0.0
2017-Jan-19 18:33N 48°32' W 123°00'6 5.9
2017-Jan-19 17:33N 48°34' W 122°52'8 8.1
2017-Jan-19 16:33N 48°31' W 122°41'3 2.3
2017-Jan-19 15:19N 48°31' W 122°36'0 0.0
2017-Jan-19 14:31N 48°31' W 122°36'0 0.0
2017-Jan-19 13:31N 48°31' W 122°36'0 0.0
2017-Jan-19 12:31N 48°31' W 122°36'0 0.0
2017-Jan-19 11:31N 48°31' W 122°36'0 0.0
2017-Jan-19 10:31N 48°31' W 122°36'0 0.0
2017-Jan-19 09:31N 48°31' W 122°36'0 0.0
2017-Jan-19 08:31N 48°31' W 122°36'0 0.0
2017-Jan-19 07:31N 48°31' W 122°36'0 0.0
2017-Jan-19 06:31N 48°31' W 122°36'0 0.0
2017-Jan-19 05:31N 48°31' W 122°36'0 0.0
2017-Jan-19 04:31N 48°31' W 122°36'0 0.0
2017-Jan-19 03:31N 48°31' W 122°36'0 0.0
2017-Jan-19 02:31N 48°31' W 122°36'0 0.0
2017-Jan-19 01:31N 48°31' W 122°36'0 0.0
2017-Jan-19 00:31N 48°31' W 122°36'0 0.0
2017-Jan-18 23:31N 48°31' W 122°36'0 0.0
2017-Jan-18 22:31N 48°31' W 122°36'0 0.0
2017-Jan-18 21:31N 48°31' W 122°36'5 5.0
2017-Jan-18 20:32N 48°35' W 122°41'6 6.6
2017-Jan-18 19:34N 48°35' W 122°51'2 2.3
2017-Jan-18 18:33N 48°33' W 122°53'1 0.9
2017-Jan-18 17:33N 48°34' W 122°52'9 8.7
2017-Jan-18 16:34N 48°31' W 122°40'3 2.6
2017-Jan-18 15:33N 48°31' W 122°36'0 0.0
2017-Jan-18 14:33N 48°31' W 122°36'0 0.0
2017-Jan-18 13:33N 48°31' W 122°36'0 0.0
2017-Jan-18 12:33N 48°31' W 122°36'0 0.0
2017-Jan-18 11:33N 48°31' W 122°36'0 0.0
2017-Jan-18 10:33N 48°31' W 122°36'0 0.0
2017-Jan-18 09:33N 48°31' W 122°36'0 0.0
2017-Jan-18 08:33N 48°31' W 122°36'0 0.0
2017-Jan-18 07:33N 48°31' W 122°36'0 0.0
2017-Jan-18 06:33N 48°31' W 122°36'0 0.0
2017-Jan-18 05:33N 48°31' W 122°36'0 0.0
2017-Jan-18 04:33N 48°31' W 122°36'0 0.0
2017-Jan-18 03:33N 48°31' W 122°36'0 0.0
2017-Jan-18 02:33N 48°31' W 122°36'0 0.0
2017-Jan-18 01:33N 48°31' W 122°36'4 4.0
2017-Jan-18 00:33N 48°34' W 122°40'6 5.6
2017-Jan-17 23:34N 48°36' W 122°48'1 1.0
2017-Jan-17 22:34N 48°35' W 122°49'0 0.0
2017-Jan-17 21:34N 48°35' W 122°49'0 0.0
2017-Jan-17 20:33N 48°35' W 122°49'0 0.0
2017-Jan-17 19:33N 48°35' W 122°49'0 0.0
2017-Jan-17 18:34N 48°35' W 122°49'0 0.0
2017-Jan-17 17:33N 48°35' W 122°49'5 4.9
2017-Jan-17 16:34N 48°32' W 122°43'5 4.4
2017-Jan-17 15:31N 48°31' W 122°36'0 0.0
2017-Jan-17 14:31N 48°31' W 122°36'0 0.0
2017-Jan-17 13:31N 48°31' W 122°36'0 0.0
2017-Jan-17 12:25N 48°31' W 122°36'0 0.0
2017-Jan-17 11:31N 48°31' W 122°36'0 0.0
2017-Jan-17 10:31N 48°31' W 122°36'0 0.0
2017-Jan-17 09:31N 48°31' W 122°36'0 0.0
2017-Jan-17 08:31N 48°31' W 122°36'0 0.0
2017-Jan-17 07:31N 48°31' W 122°36'0 0.0
2017-Jan-17 06:31N 48°31' W 122°36'0 0.0
2017-Jan-17 05:31N 48°31' W 122°36'0 0.0
2017-Jan-17 04:31N 48°31' W 122°36'0 0.0
2017-Jan-17 03:31N 48°31' W 122°36'0 0.0
2017-Jan-17 02:31N 48°31' W 122°36'0 0.0
2017-Jan-17 01:31N 48°31' W 122°36'0 0.0
2017-Jan-17 00:31N 48°31' W 122°36'0 0.0
2017-Jan-16 23:31N 48°31' W 122°36'0 0.0
2017-Jan-16 22:31N 48°31' W 122°36'0 0.0
2017-Jan-16 21:31N 48°31' W 122°36'0 0.0
2017-Jan-16 20:31N 48°31' W 122°36'0 0.0
2017-Jan-16 19:31N 48°31' W 122°36'0 0.0
2017-Jan-16 18:31N 48°31' W 122°36'0 0.0
2017-Jan-16 17:31N 48°31' W 122°36'0 0.0
2017-Jan-16 16:31N 48°31' W 122°36'0 0.0
2017-Jan-16 15:31N 48°31' W 122°36'0 0.0
2017-Jan-16 14:31N 48°31' W 122°36'0 0.0
2017-Jan-16 13:31N 48°31' W 122°36'0 0.0
2017-Jan-16 12:31N 48°31' W 122°36'0 0.0
2017-Jan-16 08:13N 48°31' W 122°36'0 0.0
2017-Jan-16 03:19N 48°31' W 122°36'0 0.0
2017-Jan-16 02:19N 48°31' W 122°36'0 0.0
2017-Jan-16 01:31N 48°31' W 122°36'0 0.0
2017-Jan-16 00:31N 48°31' W 122°36'0 0.0
2017-Jan-15 23:31N 48°31' W 122°36'0 0.0
2017-Jan-15 22:25N 48°31' W 122°36'0 0.0
2017-Jan-15 21:31N 48°31' W 122°36'0 0.0
2017-Jan-15 20:31N 48°31' W 122°36'0 0.0
2017-Jan-15 19:31N 48°31' W 122°36'0 0.0
2017-Jan-15 18:31N 48°31' W 122°36'0 0.0
2017-Jan-15 17:31N 48°31' W 122°36'0 0.0
2017-Jan-15 09:07N 48°31' W 122°36'0 0.0
2017-Jan-15 07:31N 48°31' W 122°36'0 0.0
2017-Jan-15 03:31N 48°31' W 122°36'0 0.0
2017-Jan-15 02:31N 48°31' W 122°36'0 0.0
2017-Jan-15 01:31N 48°31' W 122°36'0 0.0
2017-Jan-15 00:31N 48°31' W 122°36'0 0.0
2017-Jan-14 23:25N 48°31' W 122°36'0 0.0
2017-Jan-14 22:33N 48°31' W 122°36'7 7.3
2017-Jan-14 21:33N 48°32' W 122°47'8 7.7
2017-Jan-14 20:33N 48°32' W 122°59'1 1.0
2017-Jan-14 19:33N 48°32' W 123°00'1 0.5
2017-Jan-14 18:33N 48°32' W 122°60'7 7.0
2017-Jan-14 17:33N 48°32' W 122°49'8 8.5
2017-Jan-14 16:33N 48°31' W 122°36'0 0.1
2017-Jan-14 15:25N 48°31' W 122°36'0 0.0
2017-Jan-14 14:28N 48°31' W 122°36'0 0.0
2017-Jan-14 13:22N 48°31' W 122°36'0 0.0
2017-Jan-14 12:28N 48°31' W 122°36'0 0.0
2017-Jan-14 11:28N 48°31' W 122°36'0 0.0
2017-Jan-14 10:28N 48°31' W 122°36'0 0.0
2017-Jan-14 09:22N 48°31' W 122°36'0 0.0
2017-Jan-14 08:22N 48°31' W 122°36'0 0.0
2017-Jan-14 07:28N 48°31' W 122°36'0 0.0
2017-Jan-14 06:28N 48°31' W 122°36'0 0.0
2017-Jan-14 05:28N 48°31' W 122°36'0 0.0
2017-Jan-14 04:28N 48°31' W 122°36'0 0.0
2017-Jan-14 03:28N 48°31' W 122°36'0 0.0
2017-Jan-13 23:28N 48°31' W 122°36'1 1.6
2017-Jan-13 22:33N 48°31' W 122°39'8 8.5
2017-Jan-13 21:33N 48°33' W 122°51'6 6.2
2017-Jan-13 20:33N 48°32' W 123°00'0 0.0
2017-Jan-13 19:33N 48°32' W 123°00'6 5.9
2017-Jan-13 18:33N 48°34' W 122°52'  

Dump ship's entire track history